M I D A S
Marine Information and Data Acquisition System
Tripno 777 of the Zeeleeuw from 2004-06-01 07:27:25 to 2004-06-01 14:19:10
Back to CruiseResearch ActivitiesStationsMapUnderway DataData graphs

EquipmentUnitsComment
TimeDGPSUTC
LatitudeDGPSDM.mWGS84
LongitudeDGPSDM.mWGS84
TemperatureSBE03/SBE38deg celciusITS90
ConductivitySBE21S/mITS90
SalinitySBE21 Practical Salinity Units
ChlorophylAChelsea fluorimeterg/lCalibrated in Aceton
Missing or incorrect values are displayed as -999
Sea surface data collected by the RV Zeeleeuw from 2004-06-01 07:27:25 to 2004-06-01 14:19:10
Time Latitude Longitude Temperature Conductivity Salinity ChlorophylA
2004-06-01 07:28:31 51°13.582 2°56.119 21.238493 0.021494 0.104563 9.668665
2004-06-01 07:29:31 51°13.544 2°56.186 21.247359 0.021494 0.104585 9.668665
2004-06-01 07:30:31 51°13.535 2°56.266 21.206517 0.021494 0.104611 9.668665
2004-06-01 07:31:31 51°13.542 2°56.282 17.085093 3.626927 25.869719 10.915913
2004-06-01 07:32:31 51°13.525 2°56.27 16.477668 3.304071 24.803026 15.668939
2004-06-01 07:33:32 51°13.517 2°56.274 16.503843 3.381911 25.659611 13.3767
2004-06-01 07:34:31 51°13.545 2°56.225 16.389575 3.492522 26.712269 11.522683
2004-06-01 07:35:31 51°13.56 2°56.155 16.446584 3.37812 25.711647 10.949623
2004-06-01 07:36:32 51°13.576 2°56.095 16.345572 3.394763 25.884224 9.904631
2004-06-01 07:37:32 51°13.594 2°56.051 16.28613 3.41836 26.134458 9.567537
2004-06-01 07:38:33 51°13.604 2°56.027 16.21322 3.527606 27.121255 11.387845
2004-06-01 07:39:32 51°13.611 2°56.012 16.17479 3.592615 27.714447 11.017042
2004-06-01 07:40:33 51°13.614 2°56.003 16.137237 3.644879 28.202938 10.713657
2004-06-01 07:41:32 51°13.62 2°55.987 16.120208 3.657103 28.320042 10.578819
2004-06-01 07:42:33 51°13.655 2°55.903 16.101162 3.688401 28.607321 10.54511
2004-06-01 07:43:32 51°13.698 2°55.808 16.16457 3.590614 27.747272 11.758648
2004-06-01 07:44:32 51°13.784 2°55.677 16.203903 3.467451 26.64929 12.972187
2004-06-01 07:45:32 51°13.913 2°55.592 16.200826 3.485255 26.799409 14.050888
2004-06-01 07:46:32 51°14.049 2°55.515 16.176201 3.606734 27.856484 14.522819
2004-06-01 07:47:32 51°14.182 2°55.369 16.240736 3.528976 27.157574 15.904905
2004-06-01 07:48:33 51°14.304 2°55.168 16.177698 3.581551 27.620323 14.590238
2004-06-01 07:49:32 51°14.431 2°54.948 16.053974 3.711058 28.788595 13.005896
2004-06-01 07:50:33 51°14.465 2°54.61 15.999809 3.899721 30.51069 11.320426
2004-06-01 07:51:32 51°14.372 2°54.287 15.937149 3.944734 30.935412 11.185589
2004-06-01 07:52:33 51°14.255 2°53.961 15.896588 3.974568 31.236473 10.713657
2004-06-01 07:53:33 51°14.145 2°53.632 15.879112 3.988273 31.384161 10.376563
2004-06-01 07:54:33 51°14.035 2°53.301 15.848055 3.984478 31.364429 10.679947
2004-06-01 07:55:33 51°13.918 2°52.975 15.828805 3.986903 31.414019 10.814785
2004-06-01 07:56:32 51°13.793 2°52.663 15.822659 3.982581 31.380204 10.915913
2004-06-01 07:57:33 51°13.667 2°52.339 15.821541 3.981632 31.377185 10.949623
2004-06-01 07:58:33 51°13.547 2°52.013 15.815094 3.983319 31.396129 11.017042
2004-06-01 07:59:33 51°13.428 2°51.687 15.814148 3.983108 31.396049 11.017042
2004-06-01 08:00:32 51°13.311 2°51.367 15.82124 3.982054 31.384429 11.050751
2004-06-01 08:01:32 51°13.193 2°51.043 15.816082 3.979629 31.361958 11.08446
2004-06-01 08:02:32 51°13.073 2°50.72 15.816942 3.979208 31.361205 11.050751
2004-06-01 08:03:32 51°12.95 2°50.401 15.820209 3.981738 31.384014 11.017042
2004-06-01 08:04:32 51°12.819 2°50.091 15.809462 3.986798 31.430823 10.882204
2004-06-01 08:05:32 51°12.681 2°49.789 15.821756 3.986482 31.426862 10.915913
2004-06-01 08:06:32 51°12.56 2°49.47 15.81879 3.984901 31.410017 10.713657
2004-06-01 08:07:32 51°12.441 2°49.151 15.817888 3.985006 31.412716 10.781076
2004-06-01 08:08:32 51°12.322 2°48.835 15.810881 3.984374 31.410115 10.747366
2004-06-01 08:09:32 51°12.204 2°48.519 15.806883 3.982792 31.400951 10.679947
2004-06-01 08:10:33 51°12.084 2°48.198 15.804862 3.982265 31.399866 10.679947
2004-06-01 08:11:32 51°11.968 2°47.89 15.808732 3.98353 31.408025 10.781076
2004-06-01 08:12:33 51°11.858 2°47.564 15.800606 3.986904 31.437072 10.477691
2004-06-01 08:13:33 51°11.752 2°47.242 15.801466 3.990383 31.473563 10.241725
2004-06-01 08:14:33 51°11.645 2°46.921 15.803874 3.991437 31.482829 10.275435
2004-06-01 08:15:32 51°11.542 2°46.605 15.792824 3.994073 31.504809 10.342853
2004-06-01 08:16:33 51°11.446 2°46.272 15.763965 3.997341 31.55611 10.039469
2004-06-01 08:17:32 51°11.361 2°45.944 15.763449 3.997763 31.569335 9.837212
2004-06-01 08:18:32 51°11.259 2°45.624 15.779579 3.997025 31.559273 9.870922
2004-06-01 08:19:32 51°11.146 2°45.315 15.786331 3.997341 31.547196 10.005759
2004-06-01 08:20:33 51°11.043 2°44.994 15.785255 3.999028 31.559654 10.073178
2004-06-01 08:21:32 51°10.961 2°44.67 15.780095 4.002085 31.594279 10.039469
2004-06-01 08:22:32 51°10.884 2°44.336 15.779493 4.004404 31.614686 9.769794
2004-06-01 08:23:32 51°10.808 2°44.003 15.774461 4.007462 31.645165 9.567537
2004-06-01 08:24:32 51°10.732 2°43.671 15.758932 4.010414 31.681294 9.500118
2004-06-01 08:25:32 51°10.656 2°43.341 15.756351 4.010941 31.689519 9.4327
2004-06-01 08:26:32 51°10.58 2°43.012 15.739957 4.013471 31.718378 9.163024
2004-06-01 08:27:32 51°10.505 2°42.684 15.713917 4.018849 31.784925 9.061896
2004-06-01 08:28:33 51°10.429 2°42.352 15.702336 4.02043 31.813875 9.061896
2004-06-01 08:29:32 51°10.355 2°42.031 15.690322 4.020536 31.819611 9.095606
2004-06-01 08:30:32 51°10.28 2°41.706 15.683733 4.021379 31.836069 9.095606
2004-06-01 08:31:33 51°10.205 2°41.377 15.674473 4.021801 31.84701 9.196734
2004-06-01 08:32:32 51°10.133 2°41.059 15.656336 4.021485 31.85746 9.129315
2004-06-01 08:33:32 51°10.06 2°40.737 15.652416 4.019798 31.851596 9.163024
2004-06-01 08:34:33 51°9.987 2°40.409 15.639876 4.020853 31.865729 9.230443
2004-06-01 08:35:32 51°9.915 2°40.091 15.626946 4.021485 31.884585 9.264153
2004-06-01 08:36:32 51°9.843 2°39.765 15.628885 4.023489 31.905309 9.264153
2004-06-01 08:37:33 51°9.769 2°39.436 15.618152 4.029393 31.956298 9.297862
2004-06-01 08:38:32 51°9.699 2°39.118 15.605045 4.038038 32.048523 9.466409
2004-06-01 08:39:32 51°9.628 2°38.795 15.606899 4.04721 32.12971 9.601247
2004-06-01 08:40:32 51°9.558 2°38.474 15.600043 4.056699 32.215559 9.702375
2004-06-01 08:41:32 51°9.488 2°38.154 15.591677 4.06545 32.300418 9.702375
2004-06-01 08:42:32 51°9.417 2°37.836 15.585941 4.07146 32.361039 9.702375
2004-06-01 08:43:32 51°9.345 2°37.523 15.584734 4.075783 32.402439 9.601247
2004-06-01 08:44:33 51°9.258 2°37.319 15.596766 4.080422 32.44174 9.634956
2004-06-01 08:45:32 51°9.207 2°37.223 15.606253 4.08601 32.480844 9.702375
2004-06-01 08:46:33 51°9.17 2°37.186 15.620868 4.090965 32.512478 9.736084
2004-06-01 08:47:32 51°9.161 2°37.172 15.625566 4.094655 32.541504 9.803503
2004-06-01 08:48:32 51°9.161 2°37.174 15.628196 4.096448 32.553084 9.904631
2004-06-01 08:49:32 51°9.163 2°37.182 15.631558 4.097396 32.559649 9.97205
2004-06-01 08:50:33 51°9.169 2°37.192 15.627377 4.098345 32.568062 10.005759
2004-06-01 08:51:32 51°9.176 2°37.205 15.630006 4.098662 32.569017 10.005759
2004-06-01 08:52:32 51°9.185 2°37.219 15.635307 4.099294 32.572777 10.073178
2004-06-01 08:53:32 51°9.195 2°37.235 15.638669 4.099716 32.572817 10.039469
2004-06-01 08:54:32 51°9.206 2°37.252 15.635997 4.099927 32.57407 10.140597
2004-06-01 08:55:32 51°9.216 2°37.271 15.636471 4.100032 32.575621 10.174306
2004-06-01 08:56:32 51°9.227 2°37.291 15.631601 4.100138 32.579639 10.140597
2004-06-01 08:57:33 51°9.24 2°37.311 15.627635 4.100032 32.583021 10.208016
2004-06-01 08:58:32 51°9.252 2°37.331 15.625523 4.100138 32.584573 10.174306
2004-06-01 08:59:32 51°9.265 2°37.352 15.623109 4.100032 32.585489 10.241725
2004-06-01 09:00:33 51°9.277 2°37.374 15.617031 4.099611 32.584834 10.241725
2004-06-01 09:01:32 51°9.29 2°37.395 15.61134 4.099505 32.588218 10.275435
2004-06-01 09:02:32 51°9.303 2°37.418 15.613108 4.099295 32.588816 10.241725
2004-06-01 09:03:33 51°9.315 2°37.437 15.611728 4.099295 32.589434 10.342853
2004-06-01 09:04:33 51°9.325 2°37.449 15.60815 4.099189 32.589116 10.342853
2004-06-01 09:05:33 51°9.331 2°37.458 15.607201 4.098451 32.586889 10.342853
2004-06-01 09:06:33 51°9.336 2°37.464 15.604787 4.098662 32.587525 10.410272
2004-06-01 09:07:33 51°9.337 2°37.471 15.602243 4.099295 32.595608 10.410272
2004-06-01 09:08:32 51°9.337 2°37.47 15.603277 4.098978 32.596506 10.376563
2004-06-01 09:09:32 51°9.323 2°37.406 15.608667 4.100243 32.600322 10.342853
2004-06-01 09:10:32 51°9.314 2°37.319 15.609788 4.100771 32.605616 10.342853
2004-06-01 09:11:33 51°9.325 2°37.234 15.60483 4.102352 32.619031 10.309144
2004-06-01 09:12:36 51°9.349 2°37.147 15.601165 4.102563 32.628319 10.376563
2004-06-01 09:13:38 51°9.388 2°37.075 15.588874 4.102563 32.634502 10.342853
2004-06-01 09:14:38 51°9.435 2°37.021 15.57175 4.101193 32.629138 10.410272
2004-06-01 09:15:38 51°9.475 2°36.974 15.575072 4.100877 32.636848 10.578819
2004-06-01 09:16:37 51°9.502 2°36.927 15.578738 4.101298 32.635642 10.477691
2004-06-01 09:17:39 51°9.522 2°36.878 15.580679 4.102036 32.637864 10.410272
2004-06-01 09:18:38 51°9.535 2°36.831 15.583914 4.101825 32.637229 10.477691
2004-06-01 09:19:38 51°9.55 2°36.783 15.582232 4.102669 32.642243 10.477691
2004-06-01 09:20:38 51°9.565 2°36.736 15.582232 4.103302 32.648479 10.54511
2004-06-01 09:21:38 51°9.583 2°36.689 15.584734 4.104672 32.661269 10.578819
2004-06-01 09:22:39 51°9.603 2°36.642 15.582577 4.10657 32.678121 10.679947
2004-06-01 09:23:39 51°9.624 2°36.597 15.580766 4.108046 32.69123 10.713657
2004-06-01 09:24:38 51°9.646 2°36.554 15.570715 4.109733 32.712414 10.747366
2004-06-01 09:25:38 51°9.665 2°36.51 15.540899 4.112791 32.755106 10.848494
2004-06-01 09:26:37 51°9.676 2°36.462 15.537532 4.114584 32.784724 10.915913
2004-06-01 09:27:39 51°9.684 2°36.392 15.530108 4.116166 32.804394 10.949623
2004-06-01 09:28:39 51°9.694 2°36.32 15.520654 4.118169 32.832812 11.050751
2004-06-01 09:29:38 51°9.702 2°36.25 15.515992 4.121122 32.861582 11.050751
2004-06-01 09:30:39 51°9.709 2°36.179 15.526871 4.122598 32.872222 11.08446
2004-06-01 09:31:39 51°9.718 2°36.109 15.524194 4.125023 32.88756 11.08446
2004-06-01 09:32:38 51°9.74 2°36.04 15.531058 4.127659 32.918522 11.185589
2004-06-01 09:33:37 51°9.777 2°35.976 15.559756 4.126499 32.886334 11.219298
2004-06-01 09:34:38 51°9.833 2°35.926 15.573648 4.126709 32.867 11.320426
2004-06-01 09:35:38 51°9.896 2°35.886 15.585769 4.127236 32.867323 11.387845
2004-06-01 09:36:38 51°9.966 2°35.856 15.579774 4.128923 32.877332 11.387845
2004-06-01 09:37:38 51°10.03 2°35.844 15.572699 4.129556 32.886696 11.522683
2004-06-01 09:38:39 51°10.087 2°35.849 15.562561 4.129978 32.89918 11.65752
2004-06-01 09:39:39 51°10.127 2°35.871 15.556866 4.129873 32.905733 11.590101
2004-06-01 09:40:38 51°10.16 2°35.896 15.553845 4.130189 32.909171 11.421554
2004-06-01 09:41:39 51°10.192 2°35.917 15.552594 4.130083 32.910731 11.488973
2004-06-01 09:42:44 51°10.223 2°35.939 15.55022 4.129767 32.909166 11.590101
2004-06-01 09:43:44 51°10.256 2°35.915 15.550868 4.129662 32.910102 11.623811
2004-06-01 09:44:44 51°10.371 2°35.776 15.527605 4.130083 32.912605 11.826067
2004-06-01 09:45:44 51°10.581 2°35.765 15.353851 4.142527 33.103748 12.264289
2004-06-01 09:46:46 51°10.807 2°35.945 15.329914 4.160137 33.344715 12.972187
2004-06-01 09:47:54 51°11.05 2°36.177 15.256363 4.142951 33.232161 12.904768
2004-06-01 09:48:53 51°11.259 2°36.38 15.155567 4.126397 33.155579 12.80364
2004-06-01 09:49:52 51°11.467 2°36.588 15.048535 4.116171 33.157924 12.837349
2004-06-01 09:50:54 51°11.684 2°36.806 15.067834 4.098564 33.04348 12.80364
2004-06-01 09:51:54 51°11.893 2°37.018 15.073049 4.100356 33.043066 12.904768
2004-06-01 09:52:54 51°12.102 2°37.233 15.0531 4.092027 32.975775 12.837349
2004-06-01 09:53:54 51°12.311 2°37.448 15.050665 4.084119 32.909102 12.668802
2004-06-01 09:54:58 51°12.534 2°37.677 15.030448 4.076212 32.854455 12.601383
2004-06-01 09:55:59 51°12.748 2°37.897 15.03097 4.072838 32.827276 12.635093
2004-06-01 09:56:58 51°12.955 2°38.108 15.010007 4.06957 32.807996 12.500255
2004-06-01 09:57:57 51°13.162 2°38.319 14.958661 4.067778 32.816541 12.399127
2004-06-01 09:59:00 51°13.383 2°38.543 14.911937 4.064721 32.835894 12.095742
2004-06-01 09:59:58 51°13.598 2°38.709 14.892419 4.059871 32.819453 12.095742
2004-06-01 10:00:58 51°13.827 2°38.857 14.855677 4.055338 32.805216 12.129452
2004-06-01 10:01:58 51°14.055 2°39.007 14.832131 4.053125 32.814456 12.196871
2004-06-01 10:02:58 51°14.286 2°39.066 14.877167 4.053335 32.797296 12.399127
2004-06-01 10:03:58 51°14.485 2°38.897 14.854979 4.055444 32.807437 12.028324
2004-06-01 10:04:59 51°14.687 2°38.709 14.867316 4.063457 32.888044 12.062033
2004-06-01 10:05:59 51°14.887 2°38.524 14.820747 4.067885 32.913377 12.365418
2004-06-01 10:06:59 51°15.087 2°38.344 14.72428 4.071155 33.043324 11.994614
2004-06-01 10:07:59 51°15.286 2°38.169 14.692516 4.066516 33.037893 12.163161
2004-06-01 10:08:58 51°15.479 2°38 14.656103 4.064724 33.057653 12.129452
2004-06-01 10:09:59 51°15.68 2°37.827 14.621726 4.064408 33.078618 11.927195
2004-06-01 10:10:59 51°15.876 2°37.655 14.601993 4.062195 33.085597 11.792358
2004-06-01 10:11:59 51°16.074 2°37.482 14.588994 4.060297 33.080612 11.724939
2004-06-01 10:12:59 51°16.279 2°37.307 14.606981 4.058505 33.072064 11.69123
2004-06-01 10:13:59 51°16.491 2°37.13 14.658988 4.057239 33.025747 11.960905
2004-06-01 10:14:59 51°16.703 2°36.948 14.713184 4.057871 32.984549 12.129452
2004-06-01 10:15:59 51°16.917 2°36.767 14.707766 4.057871 32.96017 12.331708
2004-06-01 10:16:58 51°17.126 2°36.585 14.73022 4.058081 32.958235 12.331708
2004-06-01 10:17:58 51°17.329 2°36.4 14.50736 4.069258 33.125251 11.994614
2004-06-01 10:18:58 51°17.529 2°36.218 14.482684 4.073688 33.289465 11.590101
2004-06-01 10:19:59 51°17.729 2°36.036 14.456025 4.073478 33.301887 11.65752
2004-06-01 10:20:59 51°17.923 2°35.861 14.377215 4.074322 33.352054 11.354136
2004-06-01 10:21:59 51°18.119 2°35.679 14.32332 4.073163 33.400439 11.219298
2004-06-01 10:22:58 51°18.32 2°35.514 14.322354 4.074429 33.462679 11.08446
2004-06-01 10:23:58 51°18.53 2°35.349 14.430058 4.075167 33.441128 11.219298
2004-06-01 10:24:59 51°18.745 2°35.179 14.510559 4.076324 33.2933 11.826067
2004-06-01 10:25:59 51°18.957 2°35.009 14.452429 4.082861 33.360078 11.387845
2004-06-01 10:26:59 51°19.165 2°34.835 14.360748 4.082862 33.413053 11.455264
2004-06-01 10:27:59 51°19.371 2°34.662 14.240659 4.079068 33.511811 11.050751
2004-06-01 10:28:59 51°19.577 2°34.492 14.221299 4.074324 33.521135 10.983332
2004-06-01 10:29:58 51°19.783 2°34.323 14.274528 4.070423 33.481347 11.08446
2004-06-01 10:30:59 51°19.999 2°34.146 14.348626 4.07095 33.426178 11.185589
2004-06-01 10:31:59 51°20.212 2°33.971 14.394073 4.073479 33.391519 11.488973
2004-06-01 10:32:59 51°20.425 2°33.794 14.360968 4.074533 33.38411 11.69123
2004-06-01 10:33:58 51°20.628 2°33.614 14.277694 4.070528 33.417049 11.11817
2004-06-01 10:34:58 51°20.838 2°33.434 14.198455 4.06705 33.482747 11.017042
2004-06-01 10:35:59 51°21.056 2°33.248 14.25091 4.064941 33.438934 11.151879
2004-06-01 10:36:59 51°21.219 2°32.988 14.18758 4.0661 33.413315 11.253007
2004-06-01 10:37:59 51°21.369 2°32.716 13.896219 4.08466 33.81166 10.376563
2004-06-01 10:38:59 51°21.526 2°32.456 13.826047 4.083502 33.928396 10.208016
2004-06-01 10:39:59 51°21.681 2°32.197 13.811925 4.082554 33.95619 10.106888
2004-06-01 10:40:59 51°21.841 2°31.944 13.809445 4.081499 33.946398 10.174306
2004-06-01 10:41:59 51°22.005 2°31.696 13.769981 4.083292 33.975944 10.140597
2004-06-01 10:42:59 51°22.176 2°31.462 13.796072 4.083609 34.007439 10.073178
2004-06-01 10:43:59 51°22.379 2°31.276 13.919829 4.083397 33.926063 10.174306
2004-06-01 10:44:59 51°22.576 2°31.08 13.967157 4.087297 33.879111 10.140597
2004-06-01 10:45:59 51°22.762 2°30.862 14.075783 4.088034 33.813284 10.174306
2004-06-01 10:46:59 51°22.934 2°30.623 13.815511 4.095731 33.907937 9.769794
2004-06-01 10:47:58 51°23.117 2°30.407 13.742773 4.090778 34.07071 9.39899
2004-06-01 10:48:59 51°23.334 2°30.23 13.761386 4.085929 34.04877 9.466409
2004-06-01 10:49:57 51°23.54 2°30.058 13.806788 4.085085 34.007555 9.567537
2004-06-01 10:50:59 51°23.763 2°29.874 13.853089 4.084873 33.965517 9.634956
2004-06-01 10:51:58 51°23.973 2°29.695 13.892018 4.08424 33.923734 9.668665
2004-06-01 10:52:59 51°24.203 2°29.538 13.924736 4.082975 33.903208 9.803503
2004-06-01 10:53:59 51°24.431 2°29.388 13.967157 4.084766 33.83213 9.803503
2004-06-01 10:54:58 51°24.66 2°29.255 14.075695 4.082446 33.801272 10.039469
2004-06-01 10:55:59 51°24.899 2°29.122 14.075121 4.086768 33.776794 9.97205
2004-06-01 10:56:59 51°25.122 2°28.98 13.71409 4.089826 33.84798 9.837212
2004-06-01 10:57:59 51°25.34 2°28.848 13.512789 4.089621 34.225717 9.196734
2004-06-01 10:58:58 51°25.551 2°28.721 13.46603 4.083296 34.247931 8.994477
2004-06-01 10:59:58 51°25.77 2°28.593 13.468166 4.084035 34.280439 8.927059
2004-06-01 11:00:58 51°25.994 2°28.459 13.459309 4.084035 34.288056 8.893349
2004-06-01 11:01:59 51°26.224 2°28.322 13.483029 4.088251 34.273606 8.82593
2004-06-01 11:02:58 51°26.447 2°28.185 13.455392 4.085089 34.297942 8.893349
2004-06-01 11:03:58 51°26.676 2°28.05 13.431128 4.086144 34.326552 8.927059
2004-06-01 11:04:59 51°26.908 2°27.912 13.445955 4.08646 34.310795 8.85964
2004-06-01 11:05:58 51°27.132 2°27.775 13.415853 4.089834 34.342435 8.85964
2004-06-01 11:06:59 51°27.362 2°27.635 13.437941 4.088569 34.375016 8.82593
2004-06-01 11:07:59 51°27.588 2°27.502 13.334966 4.090678 34.412225 8.758512
2004-06-01 11:08:58 51°27.813 2°27.386 13.296962 4.088254 34.450121 8.758512
2004-06-01 11:09:59 51°28.048 2°27.28 13.275809 4.086778 34.473993 8.792221
2004-06-01 11:10:59 51°28.284 2°27.176 13.248042 4.087727 34.488538 8.792221
2004-06-01 11:11:58 51°28.516 2°27.071 13.227768 4.085514 34.496406 8.893349
2004-06-01 11:12:56 51°28.695 2°27.015 13.204761 4.085936 34.511612 8.82593
2004-06-01 11:13:59 51°28.789 2°27.063 13.19073 4.085619 34.526186 8.893349
2004-06-01 11:14:59 51°28.802 2°27.071 13.194395 4.084565 34.529588 8.994477
2004-06-01 11:15:59 51°28.817 2°27.086 13.193188 4.085725 34.534914 9.095606
2004-06-01 11:16:58 51°28.834 2°27.105 13.190373 4.085093 34.535269 9.264153
2004-06-01 11:17:59 51°28.852 2°27.129 13.193054 4.084987 34.534977 9.39899
2004-06-01 11:18:58 51°28.871 2°27.156 13.202036 4.086041 34.535791 9.365281
2004-06-01 11:19:59 51°28.894 2°27.184 13.204761 4.086041 34.535791 9.4327
2004-06-01 11:20:58 51°28.917 2°27.213 13.204583 4.086041 34.535791 9.466409
2004-06-01 11:21:58 51°28.943 2°27.241 13.216064 4.086041 34.532979 9.533828
2004-06-01 11:22:59 51°28.97 2°27.268 13.222899 4.087306 34.535784 9.466409
2004-06-01 11:23:59 51°28.998 2°27.295 13.235851 4.089204 34.537533 9.533828
2004-06-01 11:24:59 51°29.037 2°27.315 13.223926 4.089204 34.538938 9.500118
2004-06-01 11:25:58 51°29.1 2°27.231 13.205387 4.087623 34.53877 9.601247
2004-06-01 11:26:59 51°29.045 2°27.082 13.191311 4.085409 34.535443 9.230443
2004-06-01 11:27:59 51°28.895 2°26.896 13.161453 4.085831 34.546459 8.994477
2004-06-01 11:28:59 51°28.745 2°26.68 13.165297 4.084987 34.549752 9.028187
2004-06-01 11:29:59 51°28.593 2°26.459 13.165745 4.083406 34.545368 9.061896
2004-06-01 11:31:00 51°28.439 2°26.233 13.16105 4.083301 34.550005 8.994477
2004-06-01 11:31:59 51°28.291 2°26.014 13.161363 4.084566 34.555624 8.927059
2004-06-01 11:32:59 51°28.139 2°25.794 13.155148 4.085093 34.562014 8.927059
2004-06-01 11:33:59 51°27.988 2°25.573 13.148486 4.085726 34.572926 8.893349
2004-06-01 11:34:58 51°27.841 2°25.356 13.144595 4.085199 34.576401 8.85964
2004-06-01 11:35:58 51°27.691 2°25.135 13.144372 4.08562 34.583914 8.82593
2004-06-01 11:36:58 51°27.54 2°24.914 13.122768 4.085726 34.594788 8.82593
2004-06-01 11:37:59 51°27.387 2°24.689 13.106438 4.086148 34.611486 8.82593
2004-06-01 11:38:59 51°27.236 2°24.467 13.10344 4.085937 34.620796 8.82593
2004-06-01 11:39:59 51°27.084 2°24.248 13.094624 4.086254 34.628739 8.85964
2004-06-01 11:40:59 51°26.931 2°24.029 13.091939 4.086359 34.633273 8.893349
2004-06-01 11:41:59 51°26.784 2°23.802 13.091133 4.087097 34.643798 8.758512
2004-06-01 11:42:59 51°26.636 2°23.573 13.08254 4.088046 34.656323 8.792221
2004-06-01 11:43:59 51°26.487 2°23.345 13.062618 4.088679 34.674355 8.758512
2004-06-01 11:44:59 51°26.337 2°23.117 13.05102 4.088679 34.692079 8.724802
2004-06-01 11:45:57 51°26.192 2°22.896 13.041212 4.088468 34.697885 8.758512
2004-06-01 11:47:00 51°26.032 2°22.658 13.033194 4.088047 34.703824 8.82593
2004-06-01 11:47:59 51°25.881 2°22.433 13.020247 4.087836 34.708215 8.792221
2004-06-01 11:48:59 51°25.729 2°22.201 13.009001 4.087204 34.711449 8.82593
2004-06-01 11:49:58 51°25.583 2°21.971 12.99941 4.086887 34.720531 8.85964
2004-06-01 11:50:58 51°25.446 2°21.716 12.995556 4.086677 34.72493 8.893349
2004-06-01 11:51:59 51°25.307 2°21.464 12.990491 4.086466 34.72933 8.927059
2004-06-01 11:53:00 51°25.15 2°21.252 12.98184 4.087099 34.74103 8.85964
2004-06-01 11:54:00 51°25.046 2°21.205 12.98825 4.087415 34.74617 8.792221
2004-06-01 11:54:59 51°25.014 2°21.162 12.993315 4.088047 34.746481 8.758512
2004-06-01 11:56:00 51°24.996 2°21.074 12.985605 4.087731 34.745614 8.82593
2004-06-01 11:57:00 51°24.989 2°20.987 12.985784 4.087942 34.747616 8.82593
2004-06-01 11:57:59 51°24.991 2°20.906 12.986995 4.087731 34.746326 8.893349
2004-06-01 11:58:58 51°24.995 2°20.825 12.986681 4.088047 34.747905 8.893349
2004-06-01 11:59:58 51°24.999 2°20.746 12.982781 4.088047 34.752178 8.85964
2004-06-01 12:00:58 51°24.982 2°20.688 12.99336 4.08752 34.745035 8.85964
2004-06-01 12:01:58 51°24.956 2°20.635 12.985695 4.088785 34.749929 8.85964
2004-06-01 12:02:59 51°24.914 2°20.595 12.984171 4.088047 34.750753 8.85964
2004-06-01 12:04:00 51°24.875 2°20.548 12.976191 4.087942 34.751176 8.893349
2004-06-01 12:04:58 51°24.842 2°20.495 12.97897 4.087415 34.751155 8.960768
2004-06-01 12:05:59 51°24.807 2°20.44 12.989415 4.087204 34.747016 8.960768
2004-06-01 12:06:58 51°24.773 2°20.386 12.984709 4.087731 34.74775 8.994477
2004-06-01 12:07:59 51°24.735 2°20.336 12.982378 4.087731 34.749174 8.994477
2004-06-01 12:08:58 51°24.696 2°20.29 12.983095 4.087626 34.748172 8.960768
2004-06-01 12:09:58 51°24.658 2°20.242 12.984843 4.087942 34.750464 9.028187
2004-06-01 12:10:58 51°24.619 2°20.195 12.987488 4.087731 34.745614 9.028187
2004-06-01 12:12:00 51°24.58 2°20.149 12.991746 4.088258 34.746348 8.994477
2004-06-01 12:12:59 51°24.543 2°20.101 12.989146 4.088047 34.745058 9.061896
2004-06-01 12:13:58 51°24.504 2°20.054 12.987891 4.087837 34.743767 8.994477
2004-06-01 12:14:58 51°24.466 2°20.01 12.989326 4.08752 34.742899 8.994477
2004-06-01 12:15:59 51°24.43 2°19.96 12.988743 4.087204 34.74132 8.994477
2004-06-01 12:16:59 51°24.394 2°19.914 12.995556 4.08752 34.740052 8.994477
2004-06-01 12:17:59 51°24.363 2°19.857 12.992239 4.087309 34.737338 8.994477
2004-06-01 12:19:00 51°24.338 2°19.794 12.989326 4.086993 34.738605 9.028187
2004-06-01 12:19:59 51°24.325 2°19.725 12.987802 4.086993 34.737894 9.061896
2004-06-01 12:20:59 51°24.322 2°19.651 12.987891 4.086888 34.736181 9.129315
2004-06-01 12:22:00 51°24.326 2°19.577 12.98834 4.086677 34.732755 9.061896
2004-06-01 12:23:00 51°24.345 2°19.531 12.996632 4.087204 34.736337 8.994477
2004-06-01 12:23:58 51°24.369 2°19.501 13.001382 4.087942 34.73694 8.994477
2004-06-01 12:25:00 51°24.438 2°19.421 13.002906 4.087942 34.734805 9.061896
2004-06-01 12:26:00 51°24.606 2°19.461 13.020023 4.08868 34.733986 8.994477
2004-06-01 12:26:59 51°24.68 2°19.684 12.998245 4.089734 34.737591 8.927059
2004-06-01 12:27:59 51°24.672 2°19.821 13.001517 4.08868 34.736831 8.893349
2004-06-01 12:28:59 51°24.654 2°19.898 12.993136 4.088047 34.737941 8.927059
2004-06-01 12:29:58 51°24.64 2°19.95 12.986815 4.08752 34.741476 9.028187
2004-06-01 12:30:58 51°24.623 2°19.985 12.988564 4.087098 34.738183 9.061896
2004-06-01 12:31:59 51°24.505 2°20.076 12.998245 4.087309 34.737338 9.061896
2004-06-01 12:33:00 51°24.322 2°20.282 12.999769 4.088047 34.736518 8.994477
2004-06-01 12:33:59 51°24.159 2°20.534 13.013123 4.088996 34.735565 8.927059
2004-06-01 12:34:59 51°24.021 2°20.832 13.014467 4.089523 34.736301 8.927059
2004-06-01 12:35:59 51°23.894 2°21.145 12.999769 4.088785 34.735698 8.960768
2004-06-01 12:37:00 51°23.762 2°21.46 12.989505 4.088469 34.743368 8.960768
2004-06-01 12:37:58 51°23.636 2°21.758 12.986009 4.087837 34.746615 8.927059
2004-06-01 12:38:59 51°23.544 2°22.111 12.986636 4.087942 34.746192 8.927059
2004-06-01 12:40:00 51°23.48 2°22.485 12.995556 4.087942 34.743345 9.028187
2004-06-01 12:40:59 51°23.413 2°22.846 13.01384 4.088258 34.731406 9.028187
2004-06-01 12:41:59 51°23.345 2°23.212 13.011734 4.088363 34.721742 8.994477
2004-06-01 12:42:58 51°23.277 2°23.573 13.010793 4.087836 34.721716 8.960768
2004-06-01 12:43:59 51°23.208 2°23.948 13.014781 4.087415 34.724823 8.927059
2004-06-01 12:44:59 51°23.141 2°24.318 13.007791 4.088891 34.728876 8.85964
2004-06-01 12:45:59 51°23.073 2°24.688 12.994794 4.087415 34.727668 8.927059
2004-06-01 12:47:00 51°22.994 2°25.058 12.999903 4.085833 34.717634 8.994477
2004-06-01 12:47:59 51°22.918 2°25.416 13.011644 4.08636 34.713395 8.927059
2004-06-01 12:48:59 51°22.837 2°25.777 13.029207 4.085306 34.691314 8.927059
2004-06-01 12:49:59 51°22.756 2°26.141 13.054871 4.085095 34.672282 8.960768
2004-06-01 12:50:59 51°22.673 2°26.503 13.081242 4.085621 34.650346 8.927059
2004-06-01 12:51:58 51°22.619 2°26.876 13.098652 4.086781 34.645757 8.927059
2004-06-01 12:52:59 51°22.564 2°27.261 13.103306 4.087097 34.639553 8.927059
2004-06-01 12:53:59 51°22.511 2°27.639 13.109704 4.087519 34.639302 8.893349
2004-06-01 12:54:58 51°22.459 2°28.01 13.133548 4.087413 34.633354 8.960768
2004-06-01 12:56:00 51°22.403 2°28.399 13.143164 4.089838 34.620264 8.927059
2004-06-01 12:56:59 51°22.367 2°28.777 13.169142 4.088045 34.60261 8.927059
2004-06-01 12:57:59 51°22.337 2°29.163 13.254963 4.089521 34.572161 9.028187
2004-06-01 12:58:58 51°22.321 2°29.544 13.36653 4.092998 34.485689 9.061896
2004-06-01 12:59:59 51°22.304 2°29.936 13.35708 4.093103 34.447565 9.129315
2004-06-01 13:00:58 51°22.287 2°30.315 13.396208 4.091733 34.43468 9.264153
2004-06-01 13:01:59 51°22.262 2°30.708 13.391174 4.093736 34.429806 9.297862
2004-06-01 13:02:58 51°22.203 2°31.072 13.405386 4.091943 34.430387 9.466409
2004-06-01 13:03:59 51°22.114 2°31.429 13.415185 4.091732 34.401937 9.500118
2004-06-01 13:04:58 51°22.027 2°31.77 13.429169 4.089412 34.377373 9.668665
2004-06-01 13:05:59 51°21.935 2°32.12 13.491616 4.089834 34.345905 9.668665
2004-06-01 13:06:59 51°21.843 2°32.464 13.529732 4.092785 34.325058 9.736084
2004-06-01 13:07:59 51°21.754 2°32.811 13.584133 4.095526 34.312675 9.736084
2004-06-01 13:08:59 51°21.667 2°33.156 13.617268 4.098372 34.296483 9.769794
2004-06-01 13:09:57 51°21.6 2°33.501 13.656777 4.099004 34.275508 9.837212
2004-06-01 13:10:59 51°21.529 2°33.868 13.769804 4.099952 34.219733 10.073178
2004-06-01 13:11:59 51°21.457 2°34.223 13.836671 4.10459 34.154109 10.208016
2004-06-01 13:12:59 51°21.387 2°34.584 13.854682 4.10343 34.141284 10.410272
2004-06-01 13:13:58 51°21.318 2°34.938 13.885163 4.113024 34.142484 10.241725
2004-06-01 13:15:03 51°21.244 2°35.33 13.926415 4.103324 34.10896 10.477691
2004-06-01 13:16:02 51°21.176 2°35.687 13.981203 4.105538 34.069691 10.679947
2004-06-01 13:17:03 51°21.095 2°36.049 14.002399 4.107435 34.034416 10.882204
2004-06-01 13:18:03 51°21.014 2°36.402 14.021823 4.10037 33.951504 11.08446
2004-06-01 13:19:04 51°20.927 2°36.751 14.126967 4.089298 33.775362 11.050751
2004-06-01 13:20:04 51°20.843 2°37.097 14.183661 4.079281 33.639024 11.151879
2004-06-01 13:21:04 51°20.759 2°37.445 14.218306 4.08044 33.607151 11.421554
2004-06-01 13:22:04 51°20.676 2°37.794 14.207699 4.084236 33.624117 11.556392
2004-06-01 13:23:04 51°20.596 2°38.143 14.207259 4.085606 33.64668 11.488973
2004-06-01 13:24:04 51°20.519 2°38.492 14.217074 4.085501 33.644382 11.623811
2004-06-01 13:25:04 51°20.443 2°38.841 14.232168 4.084868 33.627276 11.69123
2004-06-01 13:26:04 51°20.38 2°39.195 14.278265 4.084446 33.598859 11.758648
2004-06-01 13:27:04 51°20.32 2°39.547 14.468303 4.085077 33.506217 11.69123
2004-06-01 13:28:04 51°20.248 2°39.89 14.529136 4.079066 33.346348 12.399127
2004-06-01 13:29:03 51°20.119 2°40.176 14.620676 4.081911 33.309056 12.297999
2004-06-01 13:30:04 51°19.968 2°40.453 14.706368 4.088553 33.303842 12.601383
2004-06-01 13:31:04 51°19.808 2°40.709 14.571922 4.088131 33.311048 12.972187
2004-06-01 13:32:04 51°19.643 2°40.956 14.562246 4.082544 33.311563 13.174443
2004-06-01 13:33:01 51°19.49 2°41.198 14.556773 4.084336 33.33375 13.241862
2004-06-01 13:34:04 51°19.332 2°41.486 14.543985 4.086551 33.359789 13.511537
2004-06-01 13:35:04 51°19.178 2°41.758 14.521907 4.081912 33.332507 13.511537
2004-06-01 13:36:04 51°19.024 2°42.027 14.5301 4.075902 33.286851 13.477828
2004-06-01 13:37:04 51°18.87 2°42.295 14.599629 4.069681 33.18861 13.848631
2004-06-01 13:38:02 51°18.722 2°42.559 14.652298 4.064936 33.107928 14.050888
2004-06-01 13:39:04 51°18.552 2°42.819 14.654179 4.06989 33.076845 13.949759
2004-06-01 13:40:04 51°18.384 2°43.064 14.647925 4.061878 33.039541 13.949759
2004-06-01 13:41:04 51°18.21 2°43.298 14.708509 4.064829 33.039308 13.983469
2004-06-01 13:42:01 51°18.044 2°43.512 14.760089 4.072209 33.045171 14.4554
2004-06-01 13:43:04 51°17.859 2°43.746 14.811543 4.069784 33.023213 14.556529
2004-06-01 13:44:04 51°17.682 2°43.971 14.827028 4.066093 32.939916 14.758785
2004-06-01 13:45:04 51°17.504 2°44.196 14.864744 4.059767 32.877006 14.826204
2004-06-01 13:46:04 51°17.326 2°44.421 14.830212 4.054917 32.81602 14.893623
2004-06-01 13:47:04 51°17.151 2°44.649 14.857682 4.052597 32.78492 14.758785
2004-06-01 13:48:04 51°16.975 2°44.874 14.829775 4.050278 32.776044 14.590238
2004-06-01 13:49:04 51°16.805 2°45.108 14.835968 4.045323 32.74844 14.556529
2004-06-01 13:50:04 51°16.638 2°45.35 14.837931 4.045217 32.741778 14.48911
2004-06-01 13:51:04 51°16.508 2°45.642 14.850183 4.043741 32.725281 14.421691
2004-06-01 13:52:04 51°16.388 2°45.951 15.056186 4.046587 32.693984 14.522819
2004-06-01 13:53:03 51°16.305 2°46.284 15.25879 4.054385 32.552954 15.197007
2004-06-01 13:54:04 51°16.218 2°46.635 15.268801 4.047742 32.416985 15.534101
2004-06-01 13:55:04 51°16.167 2°47.001 15.357919 4.039096 32.321225 15.668939
2004-06-01 13:56:04 51°16.115 2°47.365 15.306532 4.041521 32.314447 15.432973
2004-06-01 13:57:04 51°16.061 2°47.725 15.280326 4.04015 32.304694 15.095879
2004-06-01 13:58:04 51°16.005 2°48.081 15.283575 4.036355 32.298617 14.725076
2004-06-01 13:59:04 51°15.946 2°48.437 15.328702 4.034352 32.276423 14.691366
2004-06-01 14:00:04 51°15.889 2°48.79 15.339828 4.041099 32.287253 15.02846
2004-06-01 14:01:04 51°15.833 2°49.144 15.342468 4.038358 32.270221 14.927332
2004-06-01 14:02:04 51°15.776 2°49.498 15.428853 4.040888 32.270595 15.163298
2004-06-01 14:03:04 51°15.719 2°49.852 15.492285 4.04542 32.22004 15.432973
2004-06-01 14:04:04 51°15.659 2°50.204 15.561353 4.04563 32.175431 15.399264
2004-06-01 14:05:04 51°15.59 2°50.552 15.592583 4.045524 32.137295 15.298136
2004-06-01 14:06:04 51°15.519 2°50.898 15.705049 4.050056 32.121459 15.567811
2004-06-01 14:07:04 51°15.449 2°51.241 15.682183 4.04257 32.020747 16.275708
2004-06-01 14:08:04 51°15.378 2°51.587 15.787492 4.045416 32.010219 15.904905
2004-06-01 14:09:04 51°15.307 2°51.927 15.80512 4.039617 31.916322 15.500392
2004-06-01 14:10:04 51°15.209 2°52.251 15.859784 4.034661 31.848685 16.073452
2004-06-01 14:11:04 51°15.105 2°52.569 15.846809 4.035504 31.820784 15.500392
2004-06-01 14:12:04 51°15.003 2°52.89 15.887528 4.034872 31.825391 15.365554
2004-06-01 14:13:04 51°14.904 2°53.211 15.814578 4.042357 31.877441 14.927332
2004-06-01 14:14:04 51°14.816 2°53.541 15.804648 4.039511 31.900974 14.522819
2004-06-01 14:15:04 51°14.73 2°53.872 15.833575 4.033502 31.843872 14.421691
2004-06-01 14:16:04 51°14.638 2°54.206 15.895601 4.027386 31.752415 14.522819
2004-06-01 14:17:04 51°14.542 2°54.53 15.99565 4.015578 31.623703 15.298136
2004-06-01 14:18:04 51°14.437 2°54.839 16.035081 3.983106 31.222864 18.871332
2004-06-01 14:19:04 51°14.334 2°55.117 16.132103 3.974461 31.130511 19.039879